createdAt,value
2023-11-11T00:01:47.380Z,79.64
2023-11-11T00:03:50.474Z,79.50
2023-11-11T00:05:53.378Z,79.53
2023-11-11T00:07:56.182Z,80.10
2023-11-11T00:09:59.363Z,80.03
2023-11-11T00:12:03.814Z,80.16
2023-11-11T00:14:06.966Z,80.06
2023-11-11T00:16:10.057Z,79.84
2023-11-11T00:18:13.022Z,80.06
2023-11-11T00:20:18.009Z,79.87
2023-11-11T00:22:21.807Z,79.49
2023-11-11T00:24:24.621Z,80.22
2023-11-11T00:26:27.487Z,80.13
2023-11-11T00:28:32.413Z,80.42
2023-11-11T00:30:35.301Z,80.20
2023-11-11T00:32:38.304Z,80.69
2023-11-11T00:34:41.429Z,81.15
2023-11-11T00:36:44.006Z,81.26
2023-11-11T00:38:47.041Z,80.45
2023-11-11T00:40:50.168Z,80.53
2023-11-11T00:42:53.509Z,80.20
2023-11-11T00:44:57.724Z,80.45
2023-11-11T00:47:00.559Z,80.74
2023-11-11T00:49:03.442Z,80.44
2023-11-11T00:51:06.689Z,80.64
2023-11-11T00:53:09.587Z,80.53
2023-11-11T00:55:12.479Z,80.54
2023-11-11T00:57:15.839Z,80.63
2023-11-11T00:59:18.774Z,80.91
2023-11-11T01:01:23.074Z,80.77
2023-11-11T01:03:26.097Z,81.19
2023-11-11T01:05:29.049Z,81.53
2023-11-11T01:07:30.956Z,81.30
2023-11-11T01:09:33.914Z,81.14
2023-11-11T01:11:36.362Z,81.05
2023-11-11T01:13:39.276Z,80.35
2023-11-11T01:15:42.535Z,80.24
2023-11-11T01:17:46.950Z,79.74
2023-11-11T01:19:50.093Z,79.34
2023-11-11T01:21:53.613Z,78.96
2023-11-11T01:23:56.648Z,78.42
2023-11-11T01:25:59.659Z,78.24
2023-11-11T01:28:02.671Z,78.44
2023-11-11T01:30:06.711Z,78.50
2023-11-11T01:32:10.187Z,78.46
2023-11-11T01:34:13.434Z,78.52
2023-11-11T01:36:16.325Z,78.67
2023-11-11T01:38:19.330Z,77.86
2023-11-11T01:40:23.096Z,76.81
2023-11-11T01:42:26.038Z,77.62
2023-11-11T01:44:28.103Z,77.73
2023-11-11T01:46:33.753Z,78.17
2023-11-11T01:48:38.540Z,78.28
2023-11-11T01:50:44.100Z,78.37
2023-11-11T01:52:47.506Z,77.75
2023-11-11T01:54:50.505Z,76.96
2023-11-11T01:56:55.163Z,77.36
2023-11-11T01:58:58.362Z,77.72
2023-11-11T02:01:02.158Z,78.47
2023-11-11T02:03:05.385Z,77.72
2023-11-11T02:05:08.831Z,77.52
2023-11-11T02:07:13.411Z,78.01
2023-11-11T02:09:19.170Z,78.41
2023-11-11T02:11:22.628Z,79.23
2023-11-11T02:13:25.739Z,78.72
2023-11-11T02:15:29.161Z,79.88
2023-11-11T02:17:32.247Z,79.65
2023-11-11T02:19:35.117Z,79.68
2023-11-11T02:21:38.192Z,79.55
2023-11-11T02:23:42.721Z,79.66
2023-11-11T02:25:45.940Z,80.00
2023-11-11T02:27:49.147Z,79.45
2023-11-11T02:29:51.986Z,80.13
2023-11-11T02:31:54.928Z,80.25
2023-11-11T02:33:56.802Z,80.03
2023-11-11T02:35:59.700Z,80.02
2023-11-11T02:38:02.659Z,79.85
2023-11-11T02:40:10.160Z,80.06
2023-11-11T02:42:13.127Z,80.22
2023-11-11T02:44:16.510Z,79.70
2023-11-11T02:46:19.528Z,79.46
2023-11-11T02:48:22.556Z,79.99
2023-11-11T02:50:25.440Z,79.70
2023-11-11T02:52:27.295Z,79.89
2023-11-11T02:54:30.273Z,78.80
2023-11-11T02:56:34.480Z,79.21
2023-11-11T02:58:37.378Z,79.26
2023-11-11T03:00:41.305Z,79.33
2023-11-11T03:02:44.291Z,79.22
2023-11-11T03:04:47.222Z,78.90
2023-11-11T03:06:50.102Z,78.85
2023-11-11T03:08:53.078Z,79.04
2023-11-11T03:10:56.200Z,79.03
2023-11-11T03:13:00.791Z,79.30
2023-11-11T03:15:04.220Z,78.99
2023-11-11T03:17:07.895Z,78.74
2023-11-11T03:19:10.971Z,79.00
2023-11-11T03:21:21.463Z,79.16
2023-11-11T03:23:24.424Z,78.71
2023-11-11T03:25:27.392Z,79.08
2023-11-11T03:27:30.591Z,79.00
2023-11-11T03:29:33.926Z,78.73
2023-11-11T03:31:37.000Z,78.98
2023-11-11T03:33:39.945Z,78.66
2023-11-11T03:35:42.812Z,78.36
2023-11-11T03:37:44.706Z,79.14
2023-11-11T03:39:48.036Z,78.63
2023-11-11T03:41:50.939Z,78.37
2023-11-11T03:43:53.877Z,78.36
2023-11-11T03:45:58.150Z,78.10
2023-11-11T03:48:01.106Z,77.86
2023-11-11T03:50:04.063Z,77.78
2023-11-11T03:52:10.411Z,78.18
2023-11-11T03:54:13.442Z,78.21
2023-11-11T03:56:19.607Z,77.58
2023-11-11T03:58:23.864Z,77.89
2023-11-11T04:00:27.413Z,77.77
2023-11-11T04:02:31.862Z,77.58
2023-11-11T04:04:35.066Z,77.42
2023-11-11T04:06:38.664Z,77.16
2023-11-11T04:08:41.863Z,77.44
2023-11-11T04:10:45.018Z,77.25
2023-11-11T04:12:48.812Z,77.28
2023-11-11T04:14:51.837Z,76.97
2023-11-11T04:16:53.955Z,77.25
2023-11-11T04:18:58.858Z,77.22
2023-11-11T04:21:01.918Z,77.64
2023-11-11T04:23:04.881Z,77.49
2023-11-11T04:25:13.185Z,76.85
2023-11-11T04:27:16.593Z,76.95
2023-11-11T04:29:19.722Z,76.80
2023-11-11T04:31:23.025Z,76.77
2023-11-11T04:33:26.212Z,77.03
2023-11-11T04:35:31.684Z,76.31
2023-11-11T04:37:35.043Z,76.50
2023-11-11T04:39:37.988Z,76.61
2023-11-11T04:41:41.045Z,76.00
2023-11-11T04:43:44.171Z,76.41
2023-11-11T04:45:47.276Z,76.52
2023-11-11T04:47:49.397Z,76.48
2023-11-11T04:49:52.292Z,76.28
2023-11-11T04:51:57.500Z,76.10
2023-11-11T04:54:00.404Z,75.57
2023-11-11T04:56:04.324Z,76.40
2023-11-11T04:58:08.503Z,76.10
2023-11-11T05:00:15.991Z,75.82
2023-11-11T05:02:18.984Z,75.91
2023-11-11T05:04:22.066Z,75.55
2023-11-11T05:06:25.559Z,75.70
2023-11-11T05:08:29.907Z,75.33
2023-11-11T05:10:34.154Z,75.38
2023-11-11T05:12:38.471Z,75.48
2023-11-11T05:14:43.095Z,75.37
2023-11-11T05:16:51.481Z,75.42
2023-11-11T05:18:55.044Z,75.16
2023-11-11T05:20:57.051Z,74.93
2023-11-11T05:23:00.064Z,74.87
2023-11-11T05:25:03.938Z,75.35
2023-11-11T05:27:06.794Z,74.94
2023-11-11T05:29:10.384Z,74.85
2023-11-11T05:31:13.326Z,74.96
2023-11-11T05:33:16.352Z,74.64
2023-11-11T05:35:18.376Z,74.42
2023-11-11T05:37:22.763Z,74.41
2023-11-11T05:39:25.707Z,74.76
2023-11-11T05:41:31.009Z,74.47
2023-11-11T05:43:33.981Z,74.25
2023-11-11T05:45:36.826Z,74.10
2023-11-11T05:47:39.808Z,74.06
2023-11-11T05:49:44.643Z,74.31
2023-11-11T05:51:48.054Z,74.22
2023-11-11T05:53:51.000Z,74.64
2023-11-11T05:55:53.645Z,74.47
2023-11-11T05:57:58.027Z,74.32
2023-11-11T06:00:00.533Z,73.87
2023-11-11T06:02:06.836Z,73.99
2023-11-11T06:04:09.035Z,73.93
2023-11-11T06:06:12.600Z,74.04
2023-11-11T06:08:15.679Z,74.40
2023-11-11T06:10:19.332Z,74.21
2023-11-11T06:12:22.365Z,73.80
2023-11-11T06:14:26.684Z,73.90
2023-11-11T06:16:29.631Z,73.64
2023-11-11T06:18:32.616Z,74.29
2023-11-11T06:20:37.216Z,74.03
2023-11-11T06:22:40.141Z,73.71
2023-11-11T06:24:42.034Z,73.66
2023-11-11T06:26:45.268Z,73.67
2023-11-11T06:28:49.456Z,73.92
2023-11-11T06:30:53.783Z,73.39
2023-11-11T06:32:57.503Z,73.49
2023-11-11T06:34:59.547Z,73.73
2023-11-11T06:37:09.192Z,73.56
2023-11-11T06:39:11.101Z,73.70
2023-11-11T06:41:14.189Z,73.66
2023-11-11T06:43:16.020Z,73.63
2023-11-11T06:45:19.028Z,73.71
2023-11-11T06:47:23.255Z,73.87
2023-11-11T06:49:26.348Z,73.88
2023-11-11T06:51:29.737Z,73.71
2023-11-11T06:53:32.664Z,73.47
2023-11-11T06:55:35.566Z,73.59
2023-11-11T06:57:39.247Z,73.74
2023-11-11T06:59:42.239Z,73.61
2023-11-11T07:01:46.726Z,73.59
2023-11-11T07:03:51.933Z,73.98
2023-11-11T07:05:54.859Z,73.90
2023-11-11T07:07:57.828Z,73.89
2023-11-11T07:09:59.721Z,73.79
2023-11-11T07:12:03.408Z,73.65
2023-11-11T07:14:08.107Z,73.30
2023-11-11T07:16:10.234Z,73.50
2023-11-11T07:18:13.480Z,73.02
2023-11-11T07:20:20.062Z,73.19
2023-11-11T07:24:29.121Z,73.01
2023-11-11T07:26:33.163Z,72.91
2023-11-11T07:28:36.905Z,72.41
2023-11-11T07:30:40.944Z,72.80
2023-11-11T07:32:53.589Z,72.62
2023-11-11T07:35:04.033Z,72.31
2023-11-11T07:37:08.532Z,72.03
2023-11-11T07:39:11.625Z,72.55
2023-11-11T07:41:19.553Z,72.50
2023-11-11T07:43:22.502Z,72.07
2023-11-11T07:45:27.190Z,72.09
2023-11-11T07:47:29.377Z,72.12
2023-11-11T07:49:32.534Z,72.10
2023-11-11T07:51:35.624Z,72.10
2023-11-11T07:53:40.009Z,72.24
2023-11-11T07:55:43.100Z,72.15
2023-11-11T07:59:51.697Z,72.24
2023-11-11T08:01:54.633Z,72.28
2023-11-11T08:03:57.682Z,72.34
2023-11-11T08:06:02.005Z,72.50
2023-11-11T08:08:14.444Z,74.50
2023-11-11T08:10:21.032Z,75.48
2023-11-11T08:12:24.368Z,72.58
2023-11-11T08:14:27.341Z,71.82
2023-11-11T08:16:30.435Z,71.52
2023-11-11T08:18:42.222Z,71.42
2023-11-11T08:20:48.764Z,71.47
2023-11-11T08:22:51.776Z,71.19
2023-11-11T08:24:54.679Z,71.10
2023-11-11T08:26:57.998Z,71.05
2023-11-11T08:29:00.891Z,70.81
2023-11-11T08:31:04.756Z,70.42
2023-11-11T08:33:09.804Z,70.63
2023-11-11T08:35:16.680Z,70.14
2023-11-11T08:37:19.640Z,70.40
2023-11-11T08:39:23.549Z,69.55
2023-11-11T08:41:26.499Z,70.00
2023-11-11T08:43:31.430Z,69.93
2023-11-11T08:45:34.373Z,70.06
2023-11-11T08:47:39.623Z,69.30
2023-11-11T08:49:43.248Z,69.44
2023-11-11T08:51:46.486Z,68.98
2023-11-11T08:53:49.525Z,68.85
2023-11-11T08:55:52.494Z,68.30
2023-11-11T08:57:55.933Z,68.36
2023-11-11T08:59:59.317Z,68.36
2023-11-11T09:02:02.165Z,68.27
2023-11-11T09:04:05.446Z,67.87
2023-11-11T09:06:08.692Z,67.99
2023-11-11T09:08:11.614Z,67.43
2023-11-11T09:10:14.581Z,67.66
2023-11-11T09:12:17.658Z,67.60
2023-11-11T09:14:20.736Z,67.80
2023-11-11T09:16:25.049Z,67.65
2023-11-11T09:18:27.134Z,66.70
2023-11-11T09:20:30.684Z,65.62
2023-11-11T09:22:33.532Z,66.42
2023-11-11T09:24:35.678Z,66.67
2023-11-11T09:27:14.820Z,65.19
2023-11-11T09:29:01.806Z,64.87
2023-11-11T09:31:05.402Z,64.14
2023-11-11T09:33:09.844Z,62.92
2023-11-11T09:35:14.831Z,63.04
2023-11-11T09:37:18.249Z,63.32
2023-11-11T09:39:21.529Z,63.65
2023-11-11T09:41:25.147Z,63.08
2023-11-11T09:43:28.976Z,62.23
2023-11-11T09:45:32.418Z,62.72
2023-11-11T09:47:36.241Z,62.65
2023-11-11T09:49:41.784Z,62.45
2023-11-11T09:51:46.272Z,62.41
2023-11-11T09:53:50.273Z,62.51
2023-11-11T09:55:55.105Z,62.02
2023-11-11T09:57:58.339Z,61.12
2023-11-11T10:00:01.902Z,61.13
2023-11-11T10:02:16.906Z,60.94
2023-11-11T10:04:21.836Z,60.92
2023-11-11T10:06:26.118Z,61.05
2023-11-11T10:08:30.295Z,62.04
2023-11-11T10:10:32.539Z,61.95
2023-11-11T10:12:36.646Z,61.49
2023-11-11T10:14:42.469Z,60.37
2023-11-11T10:16:45.790Z,60.08
2023-11-11T10:18:51.983Z,59.60
2023-11-11T10:20:56.165Z,60.11
2023-11-11T10:23:01.334Z,60.66
2023-11-11T10:25:04.228Z,60.93
2023-11-11T10:27:08.612Z,61.43
2023-11-11T10:29:11.527Z,61.79
2023-11-11T10:31:21.315Z,61.19
2023-11-11T10:33:28.659Z,61.64
2023-11-11T10:35:31.849Z,61.85
2023-11-11T10:37:33.840Z,62.15
2023-11-11T10:39:40.463Z,61.68
2023-11-11T10:41:44.498Z,61.02
2023-11-11T10:43:47.576Z,60.79
2023-11-11T10:45:49.742Z,60.56
2023-11-11T10:47:52.681Z,61.25
2023-11-11T10:49:56.474Z,61.02
2023-11-11T10:52:01.241Z,59.97
2023-11-11T10:54:05.034Z,60.72
2023-11-11T10:56:10.055Z,60.15
2023-11-11T10:58:18.169Z,60.03
2023-11-11T11:00:22.417Z,58.70
2023-11-11T11:02:25.811Z,58.94
2023-11-11T11:04:32.901Z,59.37
2023-11-11T11:06:41.931Z,58.76
2023-11-11T11:08:52.844Z,58.84
2023-11-11T11:11:21.246Z,58.07
2023-11-11T11:13:27.015Z,58.03
2023-11-11T11:15:30.163Z,58.35
2023-11-11T11:17:36.396Z,58.52
2023-11-11T11:19:53.226Z,58.64
2023-11-11T11:21:57.731Z,58.25
2023-11-11T11:24:00.644Z,57.63
2023-11-11T11:26:04.598Z,56.45
2023-11-11T11:28:18.448Z,57.26
2023-11-11T11:30:26.121Z,56.07
2023-11-11T11:32:32.620Z,56.10
2023-11-11T11:34:34.862Z,55.51
2023-11-11T11:36:53.185Z,54.06
2023-11-11T11:38:58.015Z,55.43
2023-11-11T11:41:01.497Z,55.01
2023-11-11T11:43:12.686Z,54.99
2023-11-11T11:45:17.641Z,54.60
2023-11-11T11:47:20.461Z,54.16
2023-11-11T11:49:24.147Z,54.25
2023-11-11T11:51:27.270Z,55.23
2023-11-11T11:53:29.231Z,55.24
2023-11-11T11:55:41.749Z,54.78
2023-11-11T11:57:55.080Z,54.29
2023-11-11T12:00:08.575Z,54.14
2023-11-11T12:02:13.545Z,53.72
2023-11-11T12:04:16.636Z,53.29
2023-11-11T12:06:20.125Z,53.87
2023-11-11T12:08:23.833Z,54.47
2023-11-11T12:10:27.168Z,54.15
2023-11-11T12:12:32.219Z,53.00
2023-11-11T12:14:34.393Z,53.04
2023-11-11T12:16:41.016Z,53.19
2023-11-11T12:18:45.432Z,53.59
2023-11-11T12:20:48.977Z,53.21
2023-11-11T12:22:52.108Z,53.06
2023-11-11T12:24:55.420Z,54.19
2023-11-11T12:27:03.292Z,54.00
2023-11-11T12:29:07.152Z,53.19
2023-11-11T12:31:10.165Z,54.07
2023-11-11T12:33:13.149Z,53.49
2023-11-11T12:35:17.576Z,53.74
2023-11-11T12:37:21.877Z,52.93
2023-11-11T12:39:28.533Z,52.36
2023-11-11T12:41:35.323Z,52.37
2023-11-11T12:43:39.525Z,52.99
2023-11-11T12:45:46.925Z,53.41
2023-11-11T12:47:52.981Z,53.42
2023-11-11T12:49:55.997Z,53.30
2023-11-11T12:52:01.266Z,53.46
2023-11-11T12:54:05.540Z,53.27
2023-11-11T12:56:08.702Z,52.61
2023-11-11T12:58:24.612Z,53.13
2023-11-11T13:00:27.467Z,53.32
2023-11-11T13:02:30.416Z,53.59
2023-11-11T13:04:34.290Z,53.79
2023-11-11T13:06:38.027Z,52.92
2023-11-11T13:08:51.182Z,53.16
2023-11-11T13:10:56.104Z,53.16
2023-11-11T13:12:58.370Z,53.23
2023-11-11T13:15:02.389Z,52.79
2023-11-11T13:17:07.469Z,51.41
2023-11-11T13:19:11.213Z,51.47
2023-11-11T13:21:14.416Z,51.50
2023-11-11T13:23:18.912Z,51.80
2023-11-11T13:25:23.262Z,51.64
2023-11-11T13:27:26.290Z,52.04
2023-11-11T13:29:29.176Z,52.72
2023-11-11T13:31:33.313Z,53.36
2023-11-11T13:33:37.021Z,53.14
2023-11-11T13:35:43.097Z,52.89
2023-11-11T13:37:46.453Z,52.89
2023-11-11T13:39:52.702Z,53.56
2023-11-11T13:41:57.051Z,53.21
2023-11-11T13:44:00.496Z,53.79
2023-11-11T13:46:04.809Z,53.90
2023-11-11T13:48:08.514Z,52.19
2023-11-11T13:50:16.398Z,52.15
2023-11-11T13:52:19.946Z,52.34
2023-11-11T13:54:22.872Z,53.35
2023-11-11T13:56:26.356Z,52.69
2023-11-11T13:58:30.822Z,53.21
2023-11-11T14:00:37.301Z,53.45
2023-11-11T14:02:41.674Z,52.67
2023-11-11T14:04:46.958Z,53.10
2023-11-11T14:06:54.744Z,53.30
2023-11-11T14:08:59.415Z,54.01
2023-11-11T14:11:07.719Z,53.73
2023-11-11T14:13:10.602Z,54.58
2023-11-11T14:15:17.196Z,54.49
2023-11-11T14:17:22.729Z,54.29
2023-11-11T14:19:26.334Z,54.16
2023-11-11T14:21:34.266Z,54.43
2023-11-11T14:23:38.487Z,55.25
2023-11-11T14:25:41.466Z,54.84
2023-11-11T14:27:45.618Z,55.85
2023-11-11T14:29:47.690Z,56.22
2023-11-11T14:31:52.934Z,56.80
2023-11-11T14:34:03.577Z,57.52
2023-11-11T14:36:11.250Z,56.64
2023-11-11T14:38:15.164Z,57.47
2023-11-11T14:40:18.216Z,57.26
2023-11-11T14:42:20.141Z,57.16
2023-11-11T14:44:23.196Z,57.30
2023-11-11T14:46:27.461Z,57.68
2023-11-11T14:48:32.008Z,56.83
2023-11-11T14:50:53.235Z,57.48
2023-11-11T14:52:56.505Z,57.36
2023-11-11T14:54:58.463Z,57.31
2023-11-11T14:57:02.596Z,57.82
2023-11-11T14:59:06.151Z,57.59
2023-11-11T15:01:09.189Z,57.33
2023-11-11T15:03:14.192Z,57.47
2023-11-11T15:05:19.270Z,57.56
2023-11-11T15:07:22.038Z,57.83
2023-11-11T15:09:23.952Z,58.31
2023-11-11T15:11:27.242Z,58.01
2023-11-11T15:13:30.799Z,58.06
2023-11-11T15:15:33.705Z,58.72
2023-11-11T15:17:37.422Z,59.14
2023-11-11T15:19:40.393Z,59.40
2023-11-11T15:21:49.780Z,58.95
2023-11-11T15:23:53.418Z,59.38
2023-11-11T15:26:00.278Z,59.50
2023-11-11T15:28:03.720Z,60.07
2023-11-11T15:30:09.076Z,60.29
2023-11-11T15:32:12.230Z,60.22
2023-11-11T15:34:15.636Z,60.21
2023-11-11T15:36:18.558Z,60.11
2023-11-11T15:38:28.419Z,60.07
2023-11-11T15:40:31.393Z,60.19
2023-11-11T15:42:34.654Z,59.82
2023-11-11T15:44:36.675Z,59.84
2023-11-11T15:46:39.717Z,59.67
2023-11-11T15:48:42.960Z,60.03
2023-11-11T15:50:45.964Z,59.71
2023-11-11T15:52:49.035Z,60.54
2023-11-11T15:54:53.480Z,60.39
2023-11-11T15:56:57.815Z,61.29
2023-11-11T15:59:00.964Z,61.55
2023-11-11T16:01:04.662Z,61.98
2023-11-11T16:03:07.663Z,62.32
2023-11-11T16:05:11.365Z,62.44
2023-11-11T16:07:13.498Z,62.93
2023-11-11T16:09:17.308Z,63.53
2023-11-11T16:11:22.308Z,63.93
2023-11-11T16:13:25.178Z,64.21
2023-11-11T16:15:28.131Z,64.67
2023-11-11T16:17:31.868Z,65.06
2023-11-11T16:19:34.624Z,65.11
2023-11-11T16:21:37.681Z,66.58
2023-11-11T16:23:40.519Z,70.11
2023-11-11T16:25:44.079Z,67.76
2023-11-11T16:27:48.747Z,65.97
2023-11-11T16:29:53.443Z,65.75
2023-11-11T16:31:58.057Z,65.53
2023-11-11T16:34:02.145Z,65.90
2023-11-11T16:36:05.469Z,66.13
2023-11-11T16:38:10.807Z,66.10
2023-11-11T16:40:15.096Z,66.45
2023-11-11T16:42:18.155Z,66.56
2023-11-11T16:44:22.569Z,66.43
2023-11-11T16:46:26.060Z,66.52
2023-11-11T16:48:28.946Z,66.57
2023-11-11T16:50:32.701Z,66.62
2023-11-11T16:52:36.070Z,66.94
2023-11-11T16:54:39.915Z,66.90
2023-11-11T16:56:43.625Z,67.09
2023-11-11T16:58:48.399Z,67.19
2023-11-11T17:00:53.125Z,67.60
2023-11-11T17:02:57.875Z,67.47
2023-11-11T17:04:59.730Z,67.53
2023-11-11T17:07:09.516Z,67.16
2023-11-11T17:09:22.134Z,67.30
2023-11-11T17:11:25.012Z,67.28
2023-11-11T17:13:27.934Z,67.26
2023-11-11T17:15:31.023Z,67.63
2023-11-11T17:17:36.559Z,67.57
2023-11-11T17:19:39.461Z,67.67
2023-11-11T17:21:42.318Z,67.78
2023-11-11T17:23:45.540Z,67.59
2023-11-11T17:25:48.612Z,67.64
2023-11-11T17:27:51.988Z,67.89
2023-11-11T17:29:55.585Z,68.21
2023-11-11T17:31:59.821Z,68.11
2023-11-11T17:34:04.284Z,68.13
2023-11-11T17:36:08.561Z,68.17
2023-11-11T17:38:12.467Z,68.03
2023-11-11T17:40:15.421Z,68.06
2023-11-11T17:42:17.506Z,67.89
2023-11-11T17:44:20.330Z,67.89
2023-11-11T17:46:24.305Z,68.29
2023-11-11T17:48:27.344Z,68.05
2023-11-11T17:50:31.854Z,68.30
2023-11-11T17:52:36.131Z,68.23
2023-11-11T17:54:39.044Z,68.53
2023-11-11T17:56:42.201Z,68.63
2023-11-11T17:58:45.169Z,68.84
2023-11-11T18:00:48.277Z,69.07
2023-11-11T18:02:51.168Z,69.11
2023-11-11T18:04:54.195Z,68.88
2023-11-11T18:06:58.520Z,69.59
2023-11-11T18:09:01.381Z,69.38
2023-11-11T18:11:07.950Z,69.94
2023-11-11T18:13:10.960Z,69.74
2023-11-11T18:15:12.918Z,69.28
2023-11-11T18:17:15.866Z,69.12
2023-11-11T18:19:18.916Z,68.42
2023-11-11T18:21:22.819Z,68.31
2023-11-11T18:23:27.099Z,68.58
2023-11-11T18:25:30.185Z,68.72
2023-11-11T18:27:33.206Z,68.93
2023-11-11T18:29:39.187Z,68.95
2023-11-11T18:31:44.584Z,70.12
2023-11-11T18:33:47.657Z,70.15
2023-11-11T18:35:50.550Z,69.95
2023-11-11T18:37:53.507Z,69.34
2023-11-11T18:39:57.786Z,68.64
2023-11-11T18:42:00.684Z,68.41
2023-11-11T18:44:03.805Z,68.16
2023-11-11T18:46:06.262Z,68.18
2023-11-11T18:48:09.250Z,68.29
2023-11-11T18:50:20.512Z,68.51
2023-11-11T18:52:28.404Z,68.80
2023-11-11T18:54:31.347Z,68.79
2023-11-11T18:56:35.804Z,68.61
2023-11-11T18:58:38.752Z,68.77
2023-11-11T19:00:41.789Z,68.37
2023-11-11T19:02:44.818Z,68.42
2023-11-11T19:04:48.879Z,69.30
2023-11-11T19:06:51.834Z,68.75
2023-11-11T19:08:54.722Z,69.22
2023-11-11T19:10:57.736Z,69.41
2023-11-11T19:13:02.181Z,69.67
2023-11-11T19:15:24.481Z,69.60
2023-11-11T19:17:27.435Z,69.74
2023-11-11T19:19:30.341Z,69.75
2023-11-11T19:21:36.477Z,69.55
2023-11-11T19:23:39.342Z,70.12
2023-11-11T19:25:42.873Z,70.34
2023-11-11T19:27:46.526Z,69.89
2023-11-11T19:29:51.637Z,70.22
2023-11-11T19:31:55.321Z,70.68
2023-11-11T19:33:58.298Z,70.21
2023-11-11T19:36:01.668Z,70.54
2023-11-11T19:38:04.639Z,70.19
2023-11-11T19:40:09.518Z,70.75
2023-11-11T19:42:12.301Z,71.13
2023-11-11T19:44:15.302Z,71.38
2023-11-11T19:46:20.852Z,71.11
2023-11-11T19:48:24.373Z,71.62
2023-11-11T19:50:27.314Z,71.62
2023-11-11T19:52:30.213Z,71.93
2023-11-11T19:54:33.870Z,72.13
2023-11-11T19:56:36.731Z,72.34
2023-11-11T19:58:39.725Z,72.14
2023-11-11T20:00:42.618Z,72.07
2023-11-11T20:02:47.081Z,71.63
2023-11-11T20:04:49.265Z,71.21
2023-11-11T20:06:52.200Z,71.97
2023-11-11T20:08:55.239Z,71.78
2023-11-11T20:10:57.433Z,71.68
2023-11-11T20:13:00.498Z,71.50
2023-11-11T20:15:03.948Z,71.58
2023-11-11T20:17:08.564Z,71.80
2023-11-11T20:19:13.225Z,72.26
2023-11-11T20:21:16.159Z,72.45
2023-11-11T20:23:19.149Z,71.97
2023-11-11T20:25:22.664Z,71.88
2023-11-11T20:27:24.580Z,71.85
2023-11-11T20:29:27.531Z,71.71
2023-11-11T20:31:30.442Z,71.78
2023-11-11T20:33:34.359Z,72.01
2023-11-11T20:35:39.813Z,72.47
2023-11-11T20:37:42.917Z,72.87
2023-11-11T20:39:45.929Z,72.62
2023-11-11T20:41:48.830Z,72.47
2023-11-11T20:43:51.803Z,72.48
2023-11-11T20:45:55.071Z,72.09
2023-11-11T20:48:01.127Z,72.08
2023-11-11T20:50:05.257Z,72.02
2023-11-11T20:52:09.550Z,72.42
2023-11-11T20:54:11.489Z,72.18
2023-11-11T20:56:20.077Z,72.39
2023-11-11T20:58:28.251Z,72.23
2023-11-11T21:00:31.156Z,72.61
2023-11-11T21:02:36.168Z,72.88
2023-11-11T21:04:39.449Z,72.42
2023-11-11T21:06:42.296Z,72.83
2023-11-11T21:08:49.932Z,73.05
2023-11-11T21:10:52.932Z,72.88
2023-11-11T21:12:56.715Z,72.52
2023-11-11T21:14:59.591Z,72.32
2023-11-11T21:17:02.535Z,73.09
2023-11-11T21:19:06.182Z,72.73
2023-11-11T21:21:08.140Z,73.09
2023-11-11T21:23:11.122Z,73.02
2023-11-11T21:25:14.533Z,73.37
2023-11-11T21:27:17.448Z,73.40
2023-11-11T21:29:20.323Z,73.64
2023-11-11T21:31:22.334Z,73.17
2023-11-11T21:33:25.211Z,73.00
2023-11-11T21:35:28.315Z,73.23
2023-11-11T21:37:30.210Z,73.83
2023-11-11T21:39:33.082Z,73.79
2023-11-11T21:41:37.376Z,73.62
2023-11-11T21:43:40.396Z,74.21
2023-11-11T21:45:42.571Z,74.44
2023-11-11T21:47:45.705Z,73.84
2023-11-11T21:49:48.750Z,74.14
2023-11-11T21:51:51.710Z,74.10
2023-11-11T21:53:54.730Z,73.71
2023-11-11T21:55:57.605Z,73.89
2023-11-11T21:58:02.264Z,74.31
2023-11-11T22:00:06.219Z,73.90
2023-11-11T22:02:14.752Z,74.17
2023-11-11T22:04:17.892Z,73.77
2023-11-11T22:06:23.443Z,73.52
2023-11-11T22:08:25.385Z,73.96
2023-11-11T22:10:31.540Z,74.03
2023-11-11T22:12:33.614Z,73.95
2023-11-11T22:14:38.859Z,73.95
2023-11-11T22:16:41.862Z,74.01
2023-11-11T22:18:44.778Z,74.33
2023-11-11T22:20:51.079Z,74.00
2023-11-11T22:22:56.186Z,74.13
2023-11-11T22:24:59.068Z,74.10
2023-11-11T22:27:03.000Z,74.44
2023-11-11T22:29:06.599Z,74.65
2023-11-11T22:31:11.608Z,74.15
2023-11-11T22:33:14.348Z,74.70
2023-11-11T22:35:17.529Z,74.88
2023-11-11T22:37:20.737Z,75.02
2023-11-11T22:39:23.777Z,75.06
2023-11-11T22:41:27.077Z,75.00
2023-11-11T22:43:28.978Z,74.80
2023-11-11T22:45:31.925Z,74.50
2023-11-11T22:47:36.196Z,74.92
2023-11-11T22:49:41.294Z,74.98
2023-11-11T22:51:45.594Z,75.00
2023-11-11T22:53:48.594Z,75.23
2023-11-11T22:55:51.553Z,74.83
2023-11-11T22:57:54.720Z,74.39
2023-11-11T22:59:57.650Z,74.39
2023-11-11T23:02:00.677Z,74.65
2023-11-11T23:04:06.699Z,74.45
2023-11-11T23:06:08.745Z,74.60
2023-11-11T23:08:12.999Z,74.28
2023-11-11T23:10:16.470Z,74.95
2023-11-11T23:12:19.394Z,75.04
2023-11-11T23:14:22.577Z,75.60
2023-11-11T23:16:26.574Z,75.34
2023-11-11T23:18:29.627Z,75.86
2023-11-11T23:20:34.679Z,75.63
2023-11-11T23:22:37.379Z,75.74
2023-11-11T23:24:40.304Z,75.75
2023-11-11T23:26:43.217Z,75.47
2023-11-11T23:28:46.271Z,75.54
2023-11-11T23:30:52.059Z,75.81
2023-11-11T23:32:55.018Z,75.83
2023-11-11T23:34:58.122Z,75.65
2023-11-11T23:37:02.393Z,75.73
2023-11-11T23:39:06.153Z,75.54
2023-11-11T23:41:09.073Z,76.30
2023-11-11T23:43:11.984Z,76.20
2023-11-11T23:45:14.539Z,76.21
2023-11-11T23:47:17.490Z,75.92
2023-11-11T23:49:22.501Z,76.06
2023-11-11T23:51:25.423Z,75.63
2023-11-11T23:53:29.662Z,75.66
2023-11-11T23:55:32.624Z,76.19
2023-11-11T23:57:35.640Z,76.25
2023-11-11T23:59:38.579Z,76.11
